sensor_id;sensor_type;location;lat;lon;timestamp;pressure;altitude;pressure_sealevel;temperature;humidity
46129;BME280;31860;45.186;5.790;2023-02-19T00:03:54;100305.59;;;13.31;90.78
46129;BME280;31860;45.186;5.790;2023-02-19T00:06:21;100302.91;;;13.22;89.05
46129;BME280;31860;45.186;5.790;2023-02-19T00:08:47;100302.00;;;13.17;88.59
46129;BME280;31860;45.186;5.790;2023-02-19T00:11:18;100301.06;;;13.12;88.01
46129;BME280;31860;45.186;5.790;2023-02-19T00:13:46;100297.50;;;13.03;88.05
46129;BME280;31860;45.186;5.790;2023-02-19T00:18:48;100306.16;;;12.94;88.68
46129;BME280;31860;45.186;5.790;2023-02-19T00:21:15;100307.03;;;12.96;89.46
46129;BME280;31860;45.186;5.790;2023-02-19T00:23:41;100296.53;;;12.95;89.64
46129;BME280;31860;45.186;5.790;2023-02-19T00:26:09;100311.38;;;12.91;88.62
46129;BME280;31860;45.186;5.790;2023-02-19T00:28:35;100305.19;;;12.88;88.11
46129;BME280;31860;45.186;5.790;2023-02-19T00:33:39;100298.09;;;12.75;86.84
46129;BME280;31860;45.186;5.790;2023-02-19T00:36:05;100299.81;;;12.68;86.68
46129;BME280;31860;45.186;5.790;2023-02-19T00:38:31;100298.97;;;12.72;87.13
46129;BME280;31860;45.186;5.790;2023-02-19T00:40:59;100294.56;;;12.70;87.58
46129;BME280;31860;45.186;5.790;2023-02-19T00:43:25;100299.81;;;12.71;87.65
46129;BME280;31860;45.186;5.790;2023-02-19T00:45:50;100296.34;;;12.71;88.78
46129;BME280;31860;45.186;5.790;2023-02-19T00:48:16;100291.03;;;12.68;87.96
46129;BME280;31860;45.186;5.790;2023-02-19T00:50:42;100289.25;;;12.62;87.12
46129;BME280;31860;45.186;5.790;2023-02-19T00:53:07;100297.03;;;12.55;88.12
46129;BME280;31860;45.186;5.790;2023-02-19T00:55:33;100306.63;;;12.50;88.36
46129;BME280;31860;45.186;5.790;2023-02-19T00:57:58;100296.06;;;12.45;88.09
46129;BME280;31860;45.186;5.790;2023-02-19T01:00:23;100303.03;;;12.42;88.01
46129;BME280;31860;45.186;5.790;2023-02-19T01:02:49;100290.75;;;12.37;88.46
46129;BME280;31860;45.186;5.790;2023-02-19T01:05:14;100300.31;;;12.31;89.13
46129;BME280;31860;45.186;5.790;2023-02-19T01:07:40;100301.13;;;12.27;89.12
46129;BME280;31860;45.186;5.790;2023-02-19T01:10:06;100308.94;;;12.24;89.35
46129;BME280;31860;45.186;5.790;2023-02-19T01:12:31;100302.78;;;12.22;89.68
46129;BME280;31860;45.186;5.790;2023-02-19T01:14:57;100302.75;;;12.17;89.86
46129;BME280;31860;45.186;5.790;2023-02-19T01:17:23;100302.72;;;12.14;90.67
46129;BME280;31860;45.186;5.790;2023-02-19T01:19:48;100300.97;;;12.12;91.73
46129;BME280;31860;45.186;5.790;2023-02-19T01:22:14;100293.94;;;12.09;90.93
46129;BME280;31860;45.186;5.790;2023-02-19T01:24:39;100297.38;;;12.07;91.17
46129;BME280;31860;45.186;5.790;2023-02-19T01:27:05;100292.13;;;12.02;91.48
46129;BME280;31860;45.186;5.790;2023-02-19T01:29:30;100297.28;;;11.99;91.40
46129;BME280;31860;45.186;5.790;2023-02-19T01:31:56;100298.16;;;11.98;91.72
46129;BME280;31860;45.186;5.790;2023-02-19T01:34:21;100288.50;;;11.94;92.13
46129;BME280;31860;45.186;5.790;2023-02-19T01:36:47;100286.72;;;11.90;92.48
46129;BME280;31860;45.186;5.790;2023-02-19T01:39:12;100292.75;;;11.86;92.31
46129;BME280;31860;45.186;5.790;2023-02-19T01:41:39;100292.75;;;11.83;92.68
46129;BME280;31860;45.186;5.790;2023-02-19T01:45:10;100290.94;;;11.79;94.29
46129;BME280;31860;45.186;5.790;2023-02-19T01:46:53;100283.91;;;11.77;95.44
46129;BME280;31860;45.186;5.790;2023-02-19T01:49:33;100287.41;;;11.77;96.24
46129;BME280;31860;45.186;5.790;2023-02-19T01:52:06;100281.34;;;11.78;98.18
46129;BME280;31860;45.186;5.790;2023-02-19T01:54:35;100284.81;;;11.79;98.61
46129;BME280;31860;45.186;5.790;2023-02-19T01:57:05;100280.47;;;11.79;99.19
46129;BME280;31860;45.186;5.790;2023-02-19T01:59:32;100272.63;;;11.79;100.00
46129;BME280;31860;45.186;5.790;2023-02-19T02:01:59;100272.63;;;11.81;99.83
46129;BME280;31860;45.186;5.790;2023-02-19T02:04:24;100276.16;;;11.84;99.89
46129;BME280;31860;45.186;5.790;2023-02-19T02:06:53;100283.22;;;11.90;99.77
46129;BME280;31860;45.186;5.790;2023-02-19T02:09:20;100276.25;;;11.92;100.00
46129;BME280;31860;45.186;5.790;2023-02-19T02:12:05;100271.06;;;11.93;100.00
46129;BME280;31860;45.186;5.790;2023-02-19T02:14:35;100267.56;;;11.94;100.00
46129;BME280;31860;45.186;5.790;2023-02-19T02:17:50;100271.91;;;11.92;98.55
46129;BME280;31860;45.186;5.790;2023-02-19T02:20:35;100265.75;;;11.89;95.91
46129;BME280;31860;45.186;5.790;2023-02-19T02:23:39;100263.94;;;11.82;93.29
46129;BME280;31860;45.186;5.790;2023-02-19T02:32:02;100261.13;;;11.67;92.53
46129;BME280;31860;45.186;5.790;2023-02-19T02:34:33;100259.28;;;11.63;92.10
46129;BME280;31860;45.186;5.790;2023-02-19T02:37:03;100259.19;;;11.57;91.94
46129;BME280;31860;45.186;5.790;2023-02-19T02:39:30;100260.91;;;11.52;91.67
46129;BME280;31860;45.186;5.790;2023-02-19T02:41:58;100261.72;;;11.48;91.97
46129;BME280;31860;45.186;5.790;2023-02-19T02:44:43;100260.78;;;11.44;93.32
46129;BME280;31860;45.186;5.790;2023-02-19T02:47:35;100257.28;;;11.43;94.24
46129;BME280;31860;45.186;5.790;2023-02-19T02:50:05;100258.09;;;11.41;94.50
46129;BME280;31860;45.186;5.790;2023-02-19T02:52:35;100252.84;;;11.38;93.73
46129;BME280;31860;45.186;5.790;2023-02-19T02:55:22;100251.06;;;11.37;94.42
46129;BME280;31860;45.186;5.790;2023-02-19T02:57:48;100254.59;;;11.39;95.30
46129;BME280;31860;45.186;5.790;2023-02-19T03:00:14;100252.94;;;11.44;95.94
46129;BME280;31860;45.186;5.790;2023-02-19T03:02:41;100255.53;;;11.42;95.51
46129;BME280;31860;45.186;5.790;2023-02-19T03:05:21;100249.38;;;11.39;95.09
46129;BME280;31860;45.186;5.790;2023-02-19T03:08:53;100248.47;;;11.37;95.08
46129;BME280;31860;45.186;5.790;2023-02-19T03:11:21;100245.81;;;11.32;95.23
46129;BME280;31860;45.186;5.790;2023-02-19T03:14:16;100233.53;;;11.27;94.84
46129;BME280;31860;45.186;5.790;2023-02-19T03:17:09;100239.56;;;11.23;94.03
46129;BME280;31860;45.186;5.790;2023-02-19T03:19:55;100236.03;;;11.19;93.88
46129;BME280;31860;45.186;5.790;2023-02-19T03:22:27;100230.72;;;11.16;93.65
46129;BME280;31860;45.186;5.790;2023-02-19T03:25:01;100238.53;;;11.12;93.41
46129;BME280;31860;45.186;5.790;2023-02-19T03:27:48;100231.53;;;11.11;94.43
46129;BME280;31860;45.186;5.790;2023-02-19T03:30:21;100226.28;;;11.09;93.89
46129;BME280;31860;45.186;5.790;2023-02-19T03:32:54;100223.63;;;11.05;93.86
46129;BME280;31860;45.186;5.790;2023-02-19T03:35:29;100217.50;;;11.03;94.76
46129;BME280;31860;45.186;5.790;2023-02-19T03:38:03;100215.72;;;11.03;95.59
46129;BME280;31860;45.186;5.790;2023-02-19T03:40:34;100224.47;;;11.04;96.28
46129;BME280;31860;45.186;5.790;2023-02-19T03:43:19;100222.66;;;11.01;97.22
46129;BME280;31860;45.186;5.790;2023-02-19T03:46:07;100216.63;;;11.04;99.35
46129;BME280;31860;45.186;5.790;2023-02-19T03:48:35;100220.22;;;11.10;100.00
46129;BME280;31860;45.186;5.790;2023-02-19T03:53:59;100229.84;;;11.14;100.00
46129;BME280;31860;45.186;5.790;2023-02-19T03:56:37;100230.72;;;11.15;98.13
46129;BME280;31860;45.186;5.790;2023-02-19T03:59:17;100235.09;;;11.16;97.79
46129;BME280;31860;45.186;5.790;2023-02-19T04:01:50;100226.38;;;11.15;96.40
46129;BME280;31860;45.186;5.790;2023-02-19T04:04:27;100223.75;;;11.15;96.13
46129;BME280;31860;45.186;5.790;2023-02-19T04:06:55;100228.09;;;11.15;97.60
46129;BME280;31860;45.186;5.790;2023-02-19T04:09:24;100235.06;;;11.14;99.04
46129;BME280;31860;45.186;5.790;2023-02-19T04:11:52;100229.72;;;11.07;96.93
46129;BME280;31860;45.186;5.790;2023-02-19T04:14:23;100234.94;;;11.05;96.91
46129;BME280;31860;45.186;5.790;2023-02-19T04:16:54;100237.44;;;10.99;94.49
46129;BME280;31860;45.186;5.790;2023-02-19T04:19:23;100233.97;;;10.97;93.37
46129;BME280;31860;45.186;5.790;2023-02-19T04:21:52;100240.84;;;10.92;92.67
46129;BME280;31860;45.186;5.790;2023-02-19T04:24:23;100235.56;;;10.88;93.27
46129;BME280;31860;45.186;5.790;2023-02-19T04:26:51;100232.84;;;10.83;94.33
46129;BME280;31860;45.186;5.790;2023-02-19T04:29:17;100232.81;;;10.80;94.88
46129;BME280;31860;45.186;5.790;2023-02-19T04:31:42;100233.66;;;10.78;94.83
46129;BME280;31860;45.186;5.790;2023-02-19T04:34:07;100239.69;;;10.75;94.96
46129;BME280;31860;45.186;5.790;2023-02-19T04:36:33;100236.16;;;10.73;94.47
46129;BME280;31860;45.186;5.790;2023-02-19T04:38:58;100229.19;;;10.71;94.11
46129;BME280;31860;45.186;5.790;2023-02-19T04:41:24;100235.22;;;10.67;94.38
46129;BME280;31860;45.186;5.790;2023-02-19T04:43:49;100231.72;;;10.66;94.06
46129;BME280;31860;45.186;5.790;2023-02-19T04:46:15;100234.31;;;10.66;94.13
46129;BME280;31860;45.186;5.790;2023-02-19T04:48:40;100229.91;;;10.64;93.33
46129;BME280;31860;45.186;5.790;2023-02-19T04:51:08;100236.81;;;10.60;93.23
46129;BME280;31860;45.186;5.790;2023-02-19T04:53:34;100244.63;;;10.57;92.55
46129;BME280;31860;45.186;5.790;2023-02-19T04:56:11;100233.25;;;10.54;92.54
46129;BME280;31860;45.186;5.790;2023-02-19T04:58:37;100238.38;;;10.49;92.59
46129;BME280;31860;45.186;5.790;2023-02-19T05:01:03;100237.56;;;10.52;91.95
46129;BME280;31860;45.186;5.790;2023-02-19T05:03:29;100234.94;;;10.50;92.04
46129;BME280;31860;45.186;5.790;2023-02-19T05:05:54;100234.03;;;10.48;92.28
46129;BME280;31860;45.186;5.790;2023-02-19T05:08:20;100233.16;;;10.49;91.95
46129;BME280;31860;45.186;5.790;2023-02-19T05:10:45;100229.78;;;10.55;93.30
46129;BME280;31860;45.186;5.790;2023-02-19T05:13:10;100225.44;;;10.57;93.37
46129;BME280;31860;45.186;5.790;2023-02-19T05:15:36;100228.09;;;10.58;93.78
46129;BME280;31860;45.186;5.790;2023-02-19T05:18:01;100223.84;;;10.63;94.05
46129;BME280;31860;45.186;5.790;2023-02-19T05:20:27;100221.25;;;10.66;93.95
46129;BME280;31860;45.186;5.790;2023-02-19T05:22:52;100225.56;;;10.63;92.15
46129;BME280;31860;45.186;5.790;2023-02-19T05:25:18;100228.13;;;10.60;90.21
46129;BME280;31860;45.186;5.790;2023-02-19T05:27:43;100228.94;;;10.57;89.70
46129;BME280;31860;45.186;5.790;2023-02-19T05:30:09;100225.41;;;10.54;89.68
46129;BME280;31860;45.186;5.790;2023-02-19T05:32:35;100230.53;;;10.49;89.61
46129;BME280;31860;45.186;5.790;2023-02-19T05:35:01;100227.91;;;10.47;90.22
46129;BME280;31860;45.186;5.790;2023-02-19T05:37:26;100222.66;;;10.44;90.41
46129;BME280;31860;45.186;5.790;2023-02-19T05:39:51;100226.06;;;10.40;90.50
46129;BME280;31860;45.186;5.790;2023-02-19T05:42:17;100222.53;;;10.37;90.26
46129;BME280;31860;45.186;5.790;2023-02-19T05:44:42;100228.56;;;10.34;89.58
46129;BME280;31860;45.186;5.790;2023-02-19T05:47:08;100226.78;;;10.33;89.42
46129;BME280;31860;45.186;5.790;2023-02-19T05:49:34;100229.44;;;10.35;90.44
46129;BME280;31860;45.186;5.790;2023-02-19T05:51:59;100238.09;;;10.32;89.97
46129;BME280;31860;45.186;5.790;2023-02-19T05:54:27;100243.31;;;10.31;89.31
46129;BME280;31860;45.186;5.790;2023-02-19T05:56:53;100241.47;;;10.27;90.21
46129;BME280;31860;45.186;5.790;2023-02-19T05:59:20;100251.00;;;10.23;90.05
46129;BME280;31860;45.186;5.790;2023-02-19T06:01:47;100251.91;;;10.25;89.52
46129;BME280;31860;45.186;5.790;2023-02-19T06:04:13;100252.72;;;10.23;88.95
46129;BME280;31860;45.186;5.790;2023-02-19T06:06:40;100250.88;;;10.17;88.98
46129;BME280;31860;45.186;5.790;2023-02-19T06:09:06;100249.16;;;10.18;88.63
46129;BME280;31860;45.186;5.790;2023-02-19T06:11:32;100243.88;;;10.16;89.02
46129;BME280;31860;45.186;5.790;2023-02-19T06:13:57;100242.97;;;10.14;88.89
46129;BME280;31860;45.186;5.790;2023-02-19T06:16:23;100247.22;;;10.09;90.00
46129;BME280;31860;45.186;5.790;2023-02-19T06:18:48;100255.06;;;10.09;90.51
46129;BME280;31860;45.186;5.790;2023-02-19T06:21:15;100258.63;;;10.14;92.68
46129;BME280;31860;45.186;5.790;2023-02-19T06:23:42;100261.28;;;10.16;92.88
46129;BME280;31860;45.186;5.790;2023-02-19T06:28:36;100269.16;;;10.19;91.95
46129;BME280;31860;45.186;5.790;2023-02-19T06:31:02;100270.88;;;10.17;92.31
46129;BME280;31860;45.186;5.790;2023-02-19T06:33:28;100282.22;;;10.19;91.77
46129;BME280;31860;45.186;5.790;2023-02-19T06:35:57;100271.78;;;10.19;92.01
46129;BME280;31860;45.186;5.790;2023-02-19T06:38:23;100280.41;;;10.15;91.60
46129;BME280;31860;45.186;5.790;2023-02-19T06:40:48;100273.41;;;10.12;91.15
46129;BME280;31860;45.186;5.790;2023-02-19T06:43:13;100278.56;;;10.09;90.69
46129;BME280;31860;45.186;5.790;2023-02-19T06:45:39;100277.59;;;10.07;91.37
46129;BME280;31860;45.186;5.790;2023-02-19T06:48:04;100274.16;;;10.08;91.41
46129;BME280;31860;45.186;5.790;2023-02-19T06:50:30;100278.50;;;10.08;92.12
46129;BME280;31860;45.186;5.790;2023-02-19T06:52:55;100282.00;;;10.08;92.43
46129;BME280;31860;45.186;5.790;2023-02-19T06:55:20;100289.84;;;10.08;92.38
46129;BME280;31860;45.186;5.790;2023-02-19T06:57:46;100293.28;;;10.07;92.19
46129;BME280;31860;45.186;5.790;2023-02-19T07:00:12;100291.53;;;10.06;92.21
46129;BME280;31860;45.186;5.790;2023-02-19T07:02:37;100281.06;;;10.05;92.39
46129;BME280;31860;45.186;5.790;2023-02-19T07:05:02;100278.41;;;10.03;93.15
46129;BME280;31860;45.186;5.790;2023-02-19T07:07:28;100281.06;;;10.05;93.50
46129;BME280;31860;45.186;5.790;2023-02-19T07:09:53;100279.38;;;10.08;94.00
46129;BME280;31860;45.186;5.790;2023-02-19T07:12:19;100278.66;;;10.14;94.13
46129;BME280;31860;45.186;5.790;2023-02-19T07:14:44;100269.97;;;10.16;94.54
46129;BME280;31860;45.186;5.790;2023-02-19T07:17:09;100273.47;;;10.17;95.32
46129;BME280;31860;45.186;5.790;2023-02-19T07:19:35;100263.03;;;10.17;95.52
46129;BME280;31860;45.186;5.790;2023-02-19T07:22:00;100264.84;;;10.21;96.92
46129;BME280;31860;45.186;5.790;2023-02-19T07:24:26;100261.44;;;10.23;96.85
46129;BME280;31860;45.186;5.790;2023-02-19T07:26:51;100261.44;;;10.23;97.25
46129;BME280;31860;45.186;5.790;2023-02-19T07:29:16;100279.72;;;10.23;97.21
46129;BME280;31860;45.186;5.790;2023-02-19T07:31:42;100280.53;;;10.21;97.34
46129;BME280;31860;45.186;5.790;2023-02-19T07:34:07;100282.25;;;10.20;97.99
46129;BME280;31860;45.186;5.790;2023-02-19T07:36:33;100284.03;;;10.21;98.21
46129;BME280;31860;45.186;5.790;2023-02-19T07:38:58;100280.53;;;10.21;96.99
46129;BME280;31860;45.186;5.790;2023-02-19T07:41:25;100285.78;;;10.22;95.08
46129;BME280;31860;45.186;5.790;2023-02-19T07:43:52;100285.75;;;10.21;94.25
46129;BME280;31860;45.186;5.790;2023-02-19T07:46:18;100294.44;;;10.20;94.43
46129;BME280;31860;45.186;5.790;2023-02-19T07:48:43;100295.28;;;10.19;93.84
46129;BME280;31860;45.186;5.790;2023-02-19T07:51:11;100305.72;;;10.19;93.35
46129;BME280;31860;45.186;5.790;2023-02-19T07:53:37;100301.22;;;10.10;92.35
46129;BME280;31860;45.186;5.790;2023-02-19T07:56:05;100310.72;;;10.08;92.60
46129;BME280;31860;45.186;5.790;2023-02-19T07:58:31;100307.19;;;10.06;92.98
46129;BME280;31860;45.186;5.790;2023-02-19T08:00:56;100319.31;;;10.04;92.54
46129;BME280;31860;45.186;5.790;2023-02-19T08:03:22;100314.03;;;10.01;92.30
46129;BME280;31860;45.186;5.790;2023-02-19T08:05:48;100320.25;;;10.08;92.42
46129;BME280;31860;45.186;5.790;2023-02-19T08:08:15;100320.50;;;10.18;92.55
46129;BME280;31860;45.186;5.790;2023-02-19T08:10:41;100327.66;;;10.27;93.35
46129;BME280;31860;45.186;5.790;2023-02-19T08:13:27;100322.63;;;10.39;93.47
46129;BME280;31860;45.186;5.790;2023-02-19T08:18:27;100318.03;;;10.72;93.10
46129;BME280;31860;45.186;5.790;2023-02-19T08:20:53;100314.78;;;10.85;93.06
46129;BME280;31860;45.186;5.790;2023-02-19T08:23:19;100318.59;;;11.05;93.17
46129;BME280;31860;45.186;5.790;2023-02-19T08:25:45;100319.72;;;11.21;92.56
46129;BME280;31860;45.186;5.790;2023-02-19T08:28:12;100326.06;;;11.36;91.78
46129;BME280;31860;45.186;5.790;2023-02-19T08:30:39;100322.72;;;11.46;90.96
46129;BME280;31860;45.186;5.790;2023-02-19T08:33:05;100318.59;;;11.64;90.78
46129;BME280;31860;45.186;5.790;2023-02-19T08:35:31;100322.34;;;11.79;90.61
46129;BME280;31860;45.186;5.790;2023-02-19T08:37:59;100314.72;;;11.96;90.74
46129;BME280;31860;45.186;5.790;2023-02-19T08:40:25;100327.97;;;12.09;90.74
46129;BME280;31860;45.186;5.790;2023-02-19T08:42:51;100338.63;;;12.21;90.36
46129;BME280;31860;45.186;5.790;2023-02-19T08:45:17;100339.59;;;12.31;89.81
46129;BME280;31860;45.186;5.790;2023-02-19T08:47:43;100340.59;;;12.44;89.57
46129;BME280;31860;45.186;5.790;2023-02-19T08:50:09;100344.22;;;12.53;89.39
46129;BME280;31860;45.186;5.790;2023-02-19T08:52:35;100341.66;;;12.59;89.20
46129;BME280;31860;45.186;5.790;2023-02-19T08:55:01;100352.22;;;12.67;88.34
46129;BME280;31860;45.186;5.790;2023-02-19T08:57:27;100351.41;;;12.75;88.41
46129;BME280;31860;45.186;5.790;2023-02-19T08:59:54;100354.13;;;12.83;88.64
46129;BME280;31860;45.186;5.790;2023-02-19T09:02:21;100345.47;;;12.91;87.59
46129;BME280;31860;45.186;5.790;2023-02-19T09:04:46;100356.84;;;12.93;87.26
46129;BME280;31860;45.186;5.790;2023-02-19T09:07:12;100351.63;;;12.98;86.97
46129;BME280;31860;45.186;5.790;2023-02-19T09:09:37;100363.91;;;13.02;87.90
46129;BME280;31860;45.186;5.790;2023-02-19T09:12:07;100364.91;;;13.08;88.16
46129;BME280;31860;45.186;5.790;2023-02-19T09:14:33;100351.81;;;13.14;89.13
46129;BME280;31860;45.186;5.790;2023-02-19T09:17:00;100358.84;;;13.20;89.24
46129;BME280;31860;45.186;5.790;2023-02-19T09:19:27;100359.75;;;13.22;87.54
46129;BME280;31860;45.186;5.790;2023-02-19T09:21:53;100350.19;;;13.27;87.68
46129;BME280;31860;45.186;5.790;2023-02-19T09:24:18;100361.53;;;13.27;86.51
46129;BME280;31860;45.186;5.790;2023-02-19T09:26:44;100358.06;;;13.28;85.73
46129;BME280;31860;45.186;5.790;2023-02-19T09:29:09;100358.00;;;13.25;84.64
46129;BME280;31860;45.186;5.790;2023-02-19T09:31:35;100353.69;;;13.29;82.67
46129;BME280;31860;45.186;5.790;2023-02-19T09:34:00;100357.22;;;13.32;82.66
46129;BME280;31860;45.186;5.790;2023-02-19T09:36:26;100349.38;;;13.37;81.97
46129;BME280;31860;45.186;5.790;2023-02-19T09:38:52;100355.53;;;13.42;80.77
46129;BME280;31860;45.186;5.790;2023-02-19T09:43:48;100348.63;;;13.53;80.56
46129;BME280;31860;45.186;5.790;2023-02-19T09:46:41;100343.38;;;13.55;77.99
46129;BME280;31860;45.186;5.790;2023-02-19T09:49:13;100341.63;;;13.57;78.31
46129;BME280;31860;45.186;5.790;2023-02-19T09:51:44;100328.53;;;13.60;78.24
46129;BME280;31860;45.186;5.790;2023-02-19T09:54:19;100332.91;;;13.62;78.04
46129;BME280;31860;45.186;5.790;2023-02-19T09:56:46;100331.19;;;13.66;77.84
46129;BME280;31860;45.186;5.790;2023-02-19T09:59:19;100334.72;;;13.71;78.13
46129;BME280;31860;45.186;5.790;2023-02-19T10:01:48;100334.75;;;13.74;77.67
46129;BME280;31860;45.186;5.790;2023-02-19T10:04:17;100335.63;;;13.77;77.19
46129;BME280;31860;45.186;5.790;2023-02-19T10:06:42;100326.03;;;13.79;77.26
46129;BME280;31860;45.186;5.790;2023-02-19T10:09:21;100330.41;;;13.83;77.49
46129;BME280;31860;45.186;5.790;2023-02-19T10:11:48;100322.59;;;13.89;77.80
46129;BME280;31860;45.186;5.790;2023-02-19T10:14:35;100334.88;;;13.95;77.27
46129;BME280;31860;45.186;5.790;2023-02-19T10:17:03;100327.88;;;14.00;77.47
46129;BME280;31860;45.186;5.790;2023-02-19T10:19:31;100318.25;;;14.05;77.17
46129;BME280;31860;45.186;5.790;2023-02-19T10:21:58;100315.66;;;14.08;77.00
46129;BME280;31860;45.186;5.790;2023-02-19T10:24:26;100314.78;;;14.13;76.86
46129;BME280;31860;45.186;5.790;2023-02-19T10:26:53;100305.16;;;14.18;76.13
46129;BME280;31860;45.186;5.790;2023-02-19T10:29:19;100308.69;;;14.22;75.76
46129;BME280;31860;45.186;5.790;2023-02-19T10:31:46;100307.00;;;14.27;75.21
46129;BME280;31860;45.186;5.790;2023-02-19T10:34:22;100302.66;;;14.37;75.16
46129;BME280;31860;45.186;5.790;2023-02-19T10:36:49;100302.66;;;14.44;74.45
46129;BME280;31860;45.186;5.790;2023-02-19T10:41:47;100293.03;;;14.57;73.10
46129;BME280;31860;45.186;5.790;2023-02-19T10:44:20;100300.09;;;14.67;72.60
46129;BME280;31860;45.186;5.790;2023-02-19T10:46:48;100290.41;;;14.75;71.79
46129;BME280;31860;45.186;5.790;2023-02-19T10:49:35;100286.94;;;14.86;69.78
46129;BME280;31860;45.186;5.790;2023-02-19T10:52:40;100285.16;;;14.97;69.12
46129;BME280;31860;45.186;5.790;2023-02-19T10:57:43;100282.53;;;15.23;68.77
46129;BME280;31860;45.186;5.790;2023-02-19T11:02:40;100271.09;;;15.48;67.26
46129;BME280;31860;45.186;5.790;2023-02-19T11:07:46;100270.16;;;15.72;65.61
46129;BME280;31860;45.186;5.790;2023-02-19T11:12:48;100272.69;;;15.96;64.50
46129;BME280;31860;45.186;5.790;2023-02-19T11:15:34;100272.66;;;16.09;62.84
46129;BME280;31860;45.186;5.790;2023-02-19T11:20:49;100271.69;;;16.24;62.82
46129;BME280;31860;45.186;5.790;2023-02-19T11:23:23;100262.00;;;16.31;62.34
46129;BME280;31860;45.186;5.790;2023-02-19T11:25:50;100263.69;;;16.38;62.24
46129;BME280;31860;45.186;5.790;2023-02-19T11:28:37;100253.09;;;16.45;60.52
46129;BME280;31860;45.186;5.790;2023-02-19T11:36:26;100252.19;;;16.57;60.33
46129;BME280;31860;45.186;5.790;2023-02-19T11:38:53;100245.13;;;16.59;60.58
46129;BME280;31860;45.186;5.790;2023-02-19T11:57:46;100235.97;;;17.02;59.83
46129;BME280;31860;45.186;5.790;2023-02-19T12:02:59;100232.28;;;17.21;58.87
46129;BME280;31860;45.186;5.790;2023-02-19T12:19:15;100206.72;;;17.97;55.73
46129;BME280;31860;45.186;5.790;2023-02-19T12:27:33;100195.63;;;18.34;53.85
46129;BME280;31860;45.186;5.790;2023-02-19T12:33:23;100189.00;;;18.62;53.95
46129;BME280;31860;45.186;5.790;2023-02-19T12:36:09;100179.91;;;18.78;53.48
46129;BME280;31860;45.186;5.790;2023-02-19T12:38:43;100174.31;;;18.96;52.75
46129;BME280;31860;45.186;5.790;2023-02-19T12:41:33;100168.63;;;19.16;51.30
46129;BME280;31860;45.186;5.790;2023-02-19T12:46:48;100154.84;;;19.44;51.12
46129;BME280;31860;45.186;5.790;2023-02-19T12:51:59;100147.25;;;19.69;49.75
46129;BME280;31860;45.186;5.790;2023-02-19T12:54:29;100143.50;;;19.79;49.93
46129;BME280;31860;45.186;5.790;2023-02-19T12:57:17;100139.75;;;19.89;48.10
46129;BME280;31860;45.186;5.790;2023-02-19T13:02:25;100136.50;;;20.15;49.17
46129;BME280;31860;45.186;5.790;2023-02-19T13:05:05;100137.09;;;20.27;47.75
46129;BME280;31860;45.186;5.790;2023-02-19T13:07:39;100134.16;;;20.39;48.35
46129;BME280;31860;45.186;5.790;2023-02-19T13:10:39;100128.50;;;20.53;46.70
46129;BME280;31860;45.186;5.790;2023-02-19T13:13:11;100130.97;;;20.60;47.68
46129;BME280;31860;45.186;5.790;2023-02-19T13:15:41;100120.97;;;20.70;47.90
46129;BME280;31860;45.186;5.790;2023-02-19T13:18:23;100112.91;;;20.73;46.00
46129;BME280;31860;45.186;5.790;2023-02-19T13:20:52;100107.56;;;20.74;47.47
46129;BME280;31860;45.186;5.790;2023-02-19T13:23:27;100105.53;;;20.84;46.10
46129;BME280;31860;45.186;5.790;2023-02-19T13:37:20;100082.34;;;21.23;46.20
46129;BME280;31860;45.186;5.790;2023-02-19T13:39:56;100080.53;;;21.25;44.26
46129;BME280;31860;45.186;5.790;2023-02-19T13:42:33;100072.22;;;21.35;44.78
46129;BME280;31860;45.186;5.790;2023-02-19T13:45:00;100070.28;;;21.40;45.00
46129;BME280;31860;45.186;5.790;2023-02-19T13:50:41;100064.94;;;21.42;42.53
46129;BME280;31860;45.186;5.790;2023-02-19T14:04:41;100057.50;;;21.24;42.56
46129;BME280;31860;45.186;5.790;2023-02-19T14:14:55;100061.16;;;20.88;42.49
46129;BME280;31860;45.186;5.790;2023-02-19T14:25:42;100060.06;;;20.30;43.28
46129;BME280;31860;45.186;5.790;2023-02-19T14:30:47;100052.75;;;20.03;45.03
46129;BME280;31860;45.186;5.790;2023-02-19T14:33:15;100053.03;;;19.91;45.39
46129;BME280;31860;45.186;5.790;2023-02-19T14:35:44;100056.75;;;19.84;45.61
46129;BME280;31860;45.186;5.790;2023-02-19T14:38:17;100059.69;;;19.72;45.21
46129;BME280;31860;45.186;5.790;2023-02-19T14:40:45;100057.28;;;19.61;45.91
46129;BME280;31860;45.186;5.790;2023-02-19T14:43:16;100046.00;;;19.52;45.98
46129;BME280;31860;45.186;5.790;2023-02-19T14:45:49;100041.78;;;19.43;46.41
46129;BME280;31860;45.186;5.790;2023-02-19T14:48:22;100029.59;;;19.36;46.91
46129;BME280;31860;45.186;5.790;2023-02-19T14:50:52;100034.09;;;19.30;47.37
46129;BME280;31860;45.186;5.790;2023-02-19T14:53:22;100033.38;;;19.22;47.43
46129;BME280;31860;45.186;5.790;2023-02-19T14:55:50;100037.94;;;19.17;47.88
46129;BME280;31860;45.186;5.790;2023-02-19T14:58:27;100028.38;;;19.08;48.08
46129;BME280;31860;45.186;5.790;2023-02-19T15:00:54;100017.94;;;19.02;48.70
46129;BME280;31860;45.186;5.790;2023-02-19T15:03:26;100023.34;;;18.96;49.02
46129;BME280;31860;45.186;5.790;2023-02-19T15:05:59;100020.81;;;18.90;49.71
46129;BME280;31860;45.186;5.790;2023-02-19T15:08:37;100019.19;;;18.84;50.13
46129;BME280;31860;45.186;5.790;2023-02-19T15:11:08;100014.06;;;18.75;50.61
46129;BME280;31860;45.186;5.790;2023-02-19T15:13:35;100009.78;;;18.70;50.74
46129;BME280;31860;45.186;5.790;2023-02-19T15:16:00;100011.63;;;18.65;51.07
46129;BME280;31860;45.186;5.790;2023-02-19T15:18:26;100019.66;;;18.60;51.38
46129;BME280;31860;45.186;5.790;2023-02-19T15:21:00;100019.81;;;18.53;52.09
46129;BME280;31860;45.186;5.790;2023-02-19T15:23:26;100028.78;;;18.46;52.39